createdAt,value
2023-03-16T00:01:27.215Z,14.00
2023-03-16T00:03:55.179Z,14.00
2023-03-16T00:06:25.585Z,12.00
2023-03-16T00:08:59.007Z,9.00
2023-03-16T00:11:27.028Z,12.00
2023-03-16T00:13:54.966Z,10.50
2023-03-16T00:16:23.005Z,12.00
2023-03-16T00:18:50.916Z,9.00
2023-03-16T00:21:18.914Z,8.00
2023-03-16T00:23:46.919Z,9.50
2023-03-16T00:26:15.167Z,12.00
2023-03-16T00:28:43.588Z,14.00
2023-03-16T00:31:14.934Z,13.00
2023-03-16T00:33:43.176Z,15.00
2023-03-16T00:36:12.797Z,13.00
2023-03-16T00:38:45.472Z,17.00
2023-03-16T00:41:15.407Z,16.00
2023-03-16T00:43:45.529Z,5.00
2023-03-16T00:46:16.275Z,15.00
2023-03-16T00:48:47.301Z,17.00
2023-03-16T00:51:17.842Z,17.00
2023-03-16T00:53:47.571Z,19.00
2023-03-16T00:56:16.812Z,16.00
2023-03-16T00:58:45.722Z,19.00
2023-03-16T01:01:17.245Z,17.00
2023-03-16T01:03:45.635Z,20.00
2023-03-16T01:06:17.313Z,18.00
2023-03-16T01:08:45.649Z,19.00
2023-03-16T01:11:18.951Z,21.00
2023-03-16T01:13:48.625Z,18.00
2023-03-16T01:16:19.249Z,19.00
2023-03-16T01:18:50.626Z,16.00
2023-03-16T01:21:18.942Z,17.00
2023-03-16T01:23:46.855Z,17.00
2023-03-16T01:26:17.844Z,16.00
2023-03-16T01:28:47.863Z,16.00
2023-03-16T01:31:16.554Z,18.00
2023-03-16T01:33:44.640Z,17.00
2023-03-16T01:36:18.475Z,17.00
2023-03-16T01:39:00.444Z,16.50
2023-03-16T01:41:32.214Z,15.00
2023-03-16T01:44:00.223Z,17.50
2023-03-16T01:46:30.618Z,16.00
2023-03-16T01:49:32.948Z,16.00
2023-03-16T01:52:07.381Z,16.00
2023-03-16T01:54:47.369Z,16.67
2023-03-16T01:57:19.857Z,22.00
2023-03-16T01:59:50.532Z,17.50
2023-03-16T02:02:22.726Z,19.00
2023-03-16T02:05:02.654Z,14.00
2023-03-16T02:10:38.797Z,18.00
2023-03-16T02:13:07.173Z,19.00
2023-03-16T02:15:36.247Z,20.00
2023-03-16T02:18:07.998Z,20.00
2023-03-16T02:21:11.943Z,16.00
2023-03-16T02:23:40.115Z,19.00
2023-03-16T02:29:21.254Z,19.67
2023-03-16T02:31:52.266Z,15.50
2023-03-16T02:34:20.451Z,19.00
2023-03-16T02:36:52.359Z,16.00
2023-03-16T02:39:23.732Z,15.00
2023-03-16T02:41:52.527Z,16.00
2023-03-16T02:44:24.498Z,11.67
2023-03-16T02:46:58.355Z,12.00
2023-03-16T02:49:42.479Z,12.00
2023-03-16T02:52:11.268Z,13.00
2023-03-16T02:54:39.238Z,13.00
2023-03-16T02:57:07.235Z,17.00
2023-03-16T02:59:36.143Z,13.00
2023-03-16T03:02:04.484Z,13.00
2023-03-16T03:04:33.200Z,12.00
2023-03-16T03:07:05.015Z,12.50
2023-03-16T03:09:37.890Z,13.00
2023-03-16T03:12:06.378Z,14.00
2023-03-16T03:14:38.911Z,13.00
2023-03-16T03:17:08.280Z,13.50
2023-03-16T03:19:37.100Z,8.00
2023-03-16T03:22:06.601Z,14.50
2023-03-16T03:24:35.006Z,15.50
2023-03-16T03:27:06.075Z,12.00
2023-03-16T03:29:35.423Z,13.00
2023-03-16T03:32:05.420Z,11.50
2023-03-16T03:34:33.598Z,10.00
2023-03-16T03:37:01.649Z,15.00
2023-03-16T03:39:29.975Z,12.50
2023-03-16T03:41:57.950Z,12.00
2023-03-16T03:44:27.211Z,12.00
2023-03-16T03:49:26.871Z,11.00
2023-03-16T03:51:55.791Z,12.00
2023-03-16T03:54:26.948Z,11.50
2023-03-16T03:56:59.296Z,10.50
2023-03-16T03:59:28.092Z,15.00
2023-03-16T04:02:19.232Z,14.00
2023-03-16T04:04:52.160Z,5.00
2023-03-16T04:07:20.589Z,12.00
2023-03-16T04:09:49.040Z,11.00
2023-03-16T04:12:24.143Z,13.00
2023-03-16T04:14:52.351Z,12.00
2023-03-16T04:17:21.419Z,13.50
2023-03-16T04:19:49.879Z,12.00
2023-03-16T04:22:18.609Z,14.00
2023-03-16T04:24:47.593Z,12.00
2023-03-16T04:27:15.546Z,15.00
2023-03-16T04:29:43.902Z,14.50
2023-03-16T04:32:12.661Z,11.00
2023-03-16T04:34:44.032Z,12.00
2023-03-16T04:37:13.623Z,15.00
2023-03-16T04:39:43.369Z,14.00
2023-03-16T04:42:12.529Z,14.50
2023-03-16T04:44:44.671Z,14.00
2023-03-16T04:47:16.632Z,12.00
2023-03-16T04:49:45.741Z,14.00
2023-03-16T04:52:14.107Z,14.00
2023-03-16T04:54:42.492Z,12.00
2023-03-16T04:57:11.042Z,12.00
2023-03-16T04:59:45.470Z,15.00
2023-03-16T05:02:21.154Z,16.00
2023-03-16T05:04:49.899Z,16.00
2023-03-16T05:07:19.320Z,18.00
2023-03-16T05:09:50.464Z,20.00
2023-03-16T05:12:18.602Z,20.00
2023-03-16T05:14:47.177Z,22.00
2023-03-16T05:17:30.741Z,20.50
2023-03-16T05:19:58.746Z,21.00
2023-03-16T05:22:28.058Z,23.00
2023-03-16T05:25:15.503Z,20.50
2023-03-16T05:27:51.079Z,25.50
2023-03-16T05:30:39.562Z,23.00
2023-03-16T05:33:10.125Z,23.00
2023-03-16T05:35:38.546Z,23.00
2023-03-16T05:38:10.243Z,25.00
2023-03-16T05:40:40.670Z,23.00
2023-03-16T05:43:24.927Z,21.00
2023-03-16T05:50:45.458Z,16.00
2023-03-16T05:53:15.438Z,18.00
2023-03-16T05:55:43.787Z,18.00
2023-03-16T05:58:13.360Z,18.00
2023-03-16T06:00:42.250Z,22.00
2023-03-16T06:03:17.723Z,18.50
2023-03-16T06:05:46.061Z,20.00
2023-03-16T06:08:15.984Z,26.00
2023-03-16T06:10:48.384Z,21.50
2023-03-16T06:13:17.710Z,26.00
2023-03-16T06:15:46.127Z,25.50
2023-03-16T06:18:14.489Z,24.50
2023-03-16T06:20:43.555Z,22.50
2023-03-16T06:23:11.729Z,14.00
2023-03-16T06:25:40.846Z,28.67
2023-03-16T06:28:09.603Z,27.00
2023-03-16T06:30:38.417Z,28.00
2023-03-16T06:33:06.849Z,26.00
2023-03-16T06:35:35.186Z,27.00
2023-03-16T06:38:29.333Z,27.33
2023-03-16T06:41:01.812Z,26.00
2023-03-16T06:43:30.621Z,27.00
2023-03-16T06:45:59.146Z,29.00
2023-03-16T06:48:27.364Z,25.00
2023-03-16T06:50:55.696Z,27.50
2023-03-16T06:53:26.785Z,27.00
2023-03-16T06:55:55.210Z,27.00
2023-03-16T06:58:23.361Z,23.00
2023-03-16T07:00:54.094Z,26.00
2023-03-16T07:03:22.344Z,20.00
2023-03-16T07:06:13.723Z,20.00
2023-03-16T07:08:44.258Z,21.00
2023-03-16T07:11:15.177Z,20.00
2023-03-16T07:13:44.327Z,19.00
2023-03-16T07:16:15.368Z,22.50
2023-03-16T07:18:44.917Z,19.00
2023-03-16T07:21:15.955Z,15.00
2023-03-16T07:23:45.171Z,18.00
2023-03-16T07:26:18.628Z,19.00
2023-03-16T07:28:57.899Z,19.00
2023-03-16T07:31:40.372Z,19.50
2023-03-16T07:34:13.547Z,19.00
2023-03-16T07:36:48.735Z,23.00
2023-03-16T07:39:17.958Z,19.00
2023-03-16T07:41:46.550Z,20.00
2023-03-16T07:44:18.162Z,25.00
2023-03-16T07:46:51.664Z,22.00
2023-03-16T07:52:13.841Z,39.00
2023-03-16T07:54:43.457Z,33.00
2023-03-16T07:57:12.131Z,28.00
2023-03-16T07:59:43.474Z,26.00
2023-03-16T08:02:16.289Z,27.00
2023-03-16T08:04:46.521Z,30.50
2023-03-16T08:07:16.581Z,20.00
2023-03-16T08:10:20.249Z,22.00
2023-03-16T08:12:56.859Z,19.50
2023-03-16T08:15:25.991Z,17.00
2023-03-16T08:18:12.711Z,21.00
2023-03-16T08:20:53.278Z,18.50
2023-03-16T08:23:24.377Z,22.50
2023-03-16T08:25:55.205Z,23.00
2023-03-16T08:28:26.243Z,20.00
2023-03-16T08:30:58.752Z,19.00
2023-03-16T08:33:52.253Z,19.00
2023-03-16T08:36:25.131Z,20.00
2023-03-16T08:39:06.443Z,19.00
2023-03-16T08:41:40.791Z,16.00
2023-03-16T08:46:47.904Z,20.00
2023-03-16T08:49:17.541Z,18.00
2023-03-16T08:51:47.298Z,21.50
2023-03-16T08:54:18.636Z,16.67
2023-03-16T08:56:47.686Z,13.00
2023-03-16T08:59:29.155Z,14.50
2023-03-16T09:01:59.010Z,18.33
2023-03-16T09:04:28.550Z,19.00
2023-03-16T09:07:08.412Z,14.33
2023-03-16T09:09:39.985Z,14.00
2023-03-16T09:12:12.564Z,10.00
2023-03-16T09:14:43.331Z,11.00
2023-03-16T09:17:12.925Z,14.00
2023-03-16T09:19:51.980Z,11.00
2023-03-16T09:22:22.044Z,11.50
2023-03-16T09:24:52.368Z,7.00
2023-03-16T09:27:22.771Z,7.00
2023-03-16T09:30:08.180Z,7.00
2023-03-16T09:32:37.683Z,8.00
2023-03-16T09:35:09.975Z,8.00
2023-03-16T09:37:44.966Z,8.50
2023-03-16T09:40:28.905Z,9.00
2023-03-16T09:43:21.036Z,11.00
2023-03-16T09:46:04.184Z,7.00
2023-03-16T09:48:35.764Z,21.50
2023-03-16T09:51:14.486Z,24.67
2023-03-16T09:53:45.978Z,37.00
2023-03-16T09:56:27.585Z,25.00
2023-03-16T09:58:56.878Z,22.00
2023-03-16T10:01:35.975Z,11.00
2023-03-16T10:04:24.714Z,10.67
2023-03-16T10:07:16.523Z,9.50
2023-03-16T10:10:19.701Z,11.50
2023-03-16T10:12:53.172Z,8.00
2023-03-16T10:15:31.481Z,7.33
2023-03-16T10:18:16.406Z,7.00
2023-03-16T10:20:46.821Z,7.00
2023-03-16T10:23:24.441Z,6.50
2023-03-16T10:25:55.025Z,8.50
2023-03-16T10:28:28.625Z,6.00
2023-03-16T10:31:00.452Z,6.00
2023-03-16T10:33:39.732Z,8.50
2023-03-16T10:36:25.498Z,7.00
2023-03-16T10:38:59.802Z,8.00
2023-03-16T10:41:37.452Z,10.00
2023-03-16T10:44:27.569Z,10.00
2023-03-16T10:47:05.595Z,11.00
2023-03-16T10:49:47.329Z,10.50
2023-03-16T10:52:40.073Z,10.33
2023-03-16T10:55:19.690Z,9.00
2023-03-16T10:57:52.063Z,6.00
2023-03-16T11:00:27.340Z,13.00
2023-03-16T11:02:59.792Z,7.00
2023-03-16T11:05:34.393Z,3.50
2023-03-16T11:08:12.294Z,6.00
2023-03-16T11:10:55.454Z,5.50
2023-03-16T11:13:39.149Z,4.00
2023-03-16T11:16:46.381Z,3.00
2023-03-16T11:19:29.440Z,2.50
2023-03-16T11:22:16.472Z,6.00
2023-03-16T11:25:02.477Z,7.00
2023-03-16T11:27:35.741Z,6.33
2023-03-16T11:30:18.138Z,9.33
2023-03-16T11:32:51.224Z,9.00
2023-03-16T11:35:24.099Z,12.00
2023-03-16T11:38:33.056Z,24.00
2023-03-16T11:41:05.925Z,10.00
2023-03-16T11:43:55.481Z,8.00
2023-03-16T11:46:32.754Z,4.00
2023-03-16T11:49:04.150Z,6.00
2023-03-16T11:51:42.298Z,6.00
2023-03-16T11:54:53.370Z,5.00
2023-03-16T11:57:51.907Z,3.00
2023-03-16T12:00:31.515Z,2.00
2023-03-16T12:03:05.718Z,2.00
2023-03-16T12:06:23.417Z,2.50
2023-03-16T12:09:04.711Z,4.00
2023-03-16T12:11:51.593Z,8.00
2023-03-16T12:14:23.445Z,6.00
2023-03-16T12:17:14.926Z,4.00
2023-03-16T12:19:51.052Z,3.00
2023-03-16T12:22:33.712Z,2.00
2023-03-16T12:25:13.452Z,1.50
2023-03-16T12:27:44.888Z,2.00
2023-03-16T12:30:42.579Z,5.00
2023-03-16T12:33:25.429Z,4.00
2023-03-16T12:36:31.250Z,4.00
2023-03-16T12:39:07.497Z,3.00
2023-03-16T12:41:54.644Z,3.00
2023-03-16T12:44:47.515Z,4.00
2023-03-16T12:47:24.035Z,3.00
2023-03-16T12:49:52.521Z,3.00
2023-03-16T12:52:22.625Z,4.00
2023-03-16T12:55:08.667Z,2.00
2023-03-16T12:57:41.018Z,4.00
2023-03-16T13:00:12.746Z,3.00
2023-03-16T13:02:53.712Z,3.00
2023-03-16T13:05:38.929Z,3.00
2023-03-16T13:08:15.944Z,2.00
2023-03-16T13:11:09.787Z,2.00
2023-03-16T13:13:50.603Z,2.00
2023-03-16T13:16:29.151Z,2.50
2023-03-16T13:18:59.486Z,3.00
2023-03-16T13:21:41.372Z,2.00
2023-03-16T13:24:29.445Z,3.00
2023-03-16T13:27:15.858Z,3.00
2023-03-16T13:29:53.776Z,2.00
2023-03-16T13:32:27.502Z,2.00
2023-03-16T13:35:00.972Z,3.00
2023-03-16T13:37:34.784Z,2.00
2023-03-16T13:40:17.035Z,4.00
2023-03-16T13:42:52.966Z,3.00
2023-03-16T13:45:28.226Z,3.00
2023-03-16T13:47:59.090Z,4.00
2023-03-16T13:50:32.725Z,3.00
2023-03-16T13:53:05.026Z,3.00
2023-03-16T13:55:37.366Z,2.00
2023-03-16T13:58:26.698Z,3.00
2023-03-16T14:00:59.386Z,3.00
2023-03-16T14:03:36.456Z,2.00
2023-03-16T14:06:06.366Z,0.00
2023-03-16T14:08:34.824Z,5.00
2023-03-16T14:11:03.791Z,3.00
2023-03-16T14:13:36.375Z,5.00
2023-03-16T14:16:15.248Z,6.00
2023-03-16T14:18:52.206Z,11.50
2023-03-16T14:21:24.062Z,15.67
2023-03-16T14:24:06.968Z,9.33
2023-03-16T14:26:46.679Z,10.00
2023-03-16T14:29:28.621Z,6.00
2023-03-16T14:31:57.280Z,5.00
2023-03-16T14:34:35.430Z,5.00
2023-03-16T14:37:08.586Z,6.50
2023-03-16T14:39:37.561Z,8.00
2023-03-16T14:42:14.442Z,8.00
2023-03-16T14:44:42.656Z,14.00
2023-03-16T14:47:22.810Z,10.50
2023-03-16T14:49:51.447Z,7.00
2023-03-16T14:52:31.728Z,6.00
2023-03-16T14:55:03.534Z,6.00
2023-03-16T14:57:31.878Z,8.00
2023-03-16T14:59:59.767Z,8.00
2023-03-16T15:02:33.466Z,14.00
2023-03-16T15:05:03.133Z,13.00
2023-03-16T15:07:35.347Z,22.00
2023-03-16T15:10:16.833Z,24.00
2023-03-16T15:12:50.672Z,24.00
2023-03-16T15:15:20.796Z,18.00
2023-03-16T15:17:50.769Z,21.00
2023-03-16T15:20:25.690Z,15.00
2023-03-16T15:22:53.964Z,15.00
2023-03-16T15:25:37.460Z,4.00
2023-03-16T15:28:25.544Z,7.00
2023-03-16T15:30:56.189Z,5.00
2023-03-16T15:33:25.115Z,4.00
2023-03-16T15:35:58.507Z,3.00
2023-03-16T15:38:33.532Z,4.00
2023-03-16T15:41:01.697Z,6.00
2023-03-16T15:46:00.045Z,3.00
2023-03-16T15:48:27.994Z,2.00
2023-03-16T15:51:22.436Z,3.00
2023-03-16T15:53:54.808Z,3.00
2023-03-16T15:56:29.936Z,3.00
2023-03-16T15:59:00.949Z,2.50
2023-03-16T16:01:34.241Z,5.50
2023-03-16T16:04:03.671Z,3.00
2023-03-16T16:06:31.999Z,4.00
2023-03-16T16:09:00.026Z,3.00
2023-03-16T16:11:28.511Z,3.00
2023-03-16T16:13:58.139Z,4.00
2023-03-16T16:16:30.550Z,3.50
2023-03-16T16:18:58.474Z,3.00
2023-03-16T16:21:31.044Z,5.00
2023-03-16T16:23:59.215Z,7.00
2023-03-16T16:26:48.247Z,6.00
2023-03-16T16:29:24.366Z,7.00
2023-03-16T16:31:53.012Z,10.00
2023-03-16T16:34:24.973Z,9.00
2023-03-16T16:36:54.869Z,10.00
2023-03-16T16:39:23.884Z,14.67
2023-03-16T16:41:54.894Z,18.00
2023-03-16T16:44:31.444Z,19.00
2023-03-16T16:47:02.674Z,24.00
2023-03-16T16:49:31.336Z,26.00
2023-03-16T16:51:59.739Z,27.00
2023-03-16T16:54:31.214Z,23.50
2023-03-16T16:57:01.348Z,24.00
2023-03-16T16:59:33.136Z,22.50
2023-03-16T17:02:03.317Z,25.00
2023-03-16T17:04:31.462Z,24.00
2023-03-16T17:07:02.156Z,8.00
2023-03-16T17:09:30.767Z,23.00
2023-03-16T17:12:01.149Z,24.00
2023-03-16T17:14:31.410Z,23.00
2023-03-16T17:17:02.731Z,21.00
2023-03-16T17:19:31.681Z,25.00
2023-03-16T17:21:59.765Z,20.50
2023-03-16T17:24:29.746Z,23.00
2023-03-16T17:27:01.099Z,27.00
2023-03-16T17:29:32.280Z,27.00
2023-03-16T17:32:02.959Z,8.00
2023-03-16T17:34:34.341Z,28.00
2023-03-16T17:37:02.818Z,25.00
2023-03-16T17:39:34.217Z,33.50
2023-03-16T17:42:06.254Z,31.00
2023-03-16T17:44:41.358Z,28.50
2023-03-16T17:47:19.420Z,30.00
2023-03-16T17:49:49.178Z,29.67
2023-03-16T17:52:29.363Z,27.00
2023-03-16T17:54:57.810Z,31.00
2023-03-16T17:57:29.897Z,30.00
2023-03-16T17:59:59.407Z,29.00
2023-03-16T18:02:34.859Z,29.00
2023-03-16T18:05:05.655Z,30.50
2023-03-16T18:07:33.527Z,28.00
2023-03-16T18:10:01.421Z,28.00
2023-03-16T18:12:30.056Z,30.00
2023-03-16T18:14:58.832Z,29.00
2023-03-16T18:17:30.192Z,32.00
2023-03-16T18:19:59.297Z,28.50
2023-03-16T18:22:27.970Z,29.50
2023-03-16T18:24:56.155Z,31.00
2023-03-16T18:27:24.594Z,29.50
2023-03-16T18:29:52.769Z,30.00
2023-03-16T18:32:25.218Z,31.50
2023-03-16T18:34:54.084Z,33.00
2023-03-16T18:37:24.942Z,33.50
2023-03-16T18:39:54.533Z,31.50
2023-03-16T18:42:26.006Z,34.00
2023-03-16T18:44:53.937Z,16.00
2023-03-16T18:47:24.162Z,34.00
2023-03-16T18:49:54.223Z,34.00
2023-03-16T18:52:25.028Z,33.00
2023-03-16T18:54:53.640Z,36.00
2023-03-16T18:57:25.544Z,36.00
2023-03-16T18:59:54.522Z,34.00
2023-03-16T19:02:41.130Z,34.50
2023-03-16T19:05:16.815Z,35.00
2023-03-16T19:07:48.853Z,31.00
2023-03-16T19:10:26.689Z,32.00
2023-03-16T19:12:55.112Z,31.00
2023-03-16T19:15:32.593Z,31.00
2023-03-16T19:18:01.084Z,29.00
2023-03-16T19:20:33.242Z,29.00
2023-03-16T19:23:30.971Z,31.00
2023-03-16T19:25:59.345Z,30.00
2023-03-16T19:28:39.470Z,30.00
2023-03-16T19:31:24.112Z,30.00
2023-03-16T19:33:52.650Z,33.00
2023-03-16T19:36:24.826Z,30.33
2023-03-16T19:38:53.113Z,30.50
2023-03-16T19:41:23.517Z,30.00
2023-03-16T19:43:52.990Z,30.00
2023-03-16T19:46:21.179Z,28.67
2023-03-16T19:48:49.135Z,28.00
2023-03-16T19:51:18.128Z,29.50
2023-03-16T19:53:46.190Z,29.50
2023-03-16T19:56:23.197Z,31.00
2023-03-16T19:58:53.819Z,29.50
2023-03-16T20:01:32.525Z,29.50
2023-03-16T20:04:04.503Z,28.00
2023-03-16T20:06:33.390Z,30.00
2023-03-16T20:09:01.579Z,34.00
2023-03-16T20:11:31.789Z,32.00
2023-03-16T20:14:01.849Z,33.50
2023-03-16T20:16:35.561Z,32.50
2023-03-16T20:19:12.402Z,32.00
2023-03-16T20:21:40.700Z,33.00
2023-03-16T20:24:16.387Z,23.50
2023-03-16T20:26:46.543Z,27.00
2023-03-16T20:29:32.287Z,30.00
2023-03-16T20:32:02.199Z,32.00
2023-03-16T20:34:32.383Z,32.00
2023-03-16T20:37:00.783Z,32.00
2023-03-16T20:39:28.777Z,33.50
2023-03-16T20:41:57.188Z,32.00
2023-03-16T20:44:25.729Z,33.33
2023-03-16T20:46:53.682Z,35.00
2023-03-16T20:49:21.619Z,34.00
2023-03-16T20:54:18.177Z,35.50
2023-03-16T20:56:46.992Z,34.00
2023-03-16T20:59:23.951Z,34.00
2023-03-16T21:01:54.749Z,34.00
2023-03-16T21:04:26.276Z,33.00
2023-03-16T21:06:55.787Z,34.50
2023-03-16T21:09:23.888Z,35.50
2023-03-16T21:11:51.840Z,35.50
2023-03-16T21:14:24.508Z,37.00
2023-03-16T21:16:54.001Z,33.00
2023-03-16T21:19:23.556Z,40.00
2023-03-16T21:21:51.640Z,38.00
2023-03-16T21:24:39.888Z,41.50
2023-03-16T21:27:19.466Z,41.00
2023-03-16T21:29:48.411Z,41.00
2023-03-16T21:32:22.473Z,42.00
2023-03-16T21:34:50.760Z,40.00
2023-03-16T21:37:22.392Z,38.50
2023-03-16T21:39:54.697Z,40.00
2023-03-16T21:42:22.686Z,1.00
2023-03-16T21:44:50.841Z,50.50
2023-03-16T21:47:28.115Z,44.00
2023-03-16T21:49:56.383Z,45.00
2023-03-16T21:52:27.867Z,47.50
2023-03-16T21:54:57.297Z,50.00
2023-03-16T21:57:25.190Z,51.50
2023-03-16T21:59:53.148Z,56.75
2023-03-16T22:02:24.970Z,56.00
2023-03-16T22:04:56.862Z,53.50
2023-03-16T22:07:25.603Z,50.67
2023-03-16T22:09:53.538Z,51.00
2023-03-16T22:12:21.455Z,51.67
2023-03-16T22:14:49.573Z,46.00
2023-03-16T22:17:24.400Z,52.00
2023-03-16T22:19:53.193Z,56.00
2023-03-16T22:22:21.444Z,51.33
2023-03-16T22:24:49.617Z,49.00
2023-03-16T22:27:21.879Z,54.00
2023-03-16T22:29:51.295Z,53.00
2023-03-16T22:32:21.905Z,49.50
2023-03-16T22:34:56.681Z,48.00
2023-03-16T22:37:27.888Z,47.00
2023-03-16T22:39:58.536Z,51.00
2023-03-16T22:42:36.101Z,46.50
2023-03-16T22:45:26.268Z,46.50
2023-03-16T22:47:56.589Z,46.67
2023-03-16T22:50:28.248Z,49.50
2023-03-16T22:52:59.852Z,50.00
2023-03-16T22:55:32.704Z,53.00
2023-03-16T22:58:32.839Z,50.00
2023-03-16T23:01:12.176Z,47.50
2023-03-16T23:03:41.077Z,44.50
2023-03-16T23:06:17.362Z,55.00
2023-03-16T23:08:45.437Z,57.50
2023-03-16T23:11:22.414Z,51.67
2023-03-16T23:13:53.613Z,48.00
2023-03-16T23:16:29.428Z,48.00
2023-03-16T23:18:57.638Z,48.75
2023-03-16T23:21:26.639Z,45.50
2023-03-16T23:24:03.664Z,43.67
2023-03-16T23:26:32.916Z,45.00
2023-03-16T23:29:01.048Z,42.00
2023-03-16T23:31:29.650Z,43.50
2023-03-16T23:33:57.753Z,41.00
2023-03-16T23:36:26.483Z,50.00
2023-03-16T23:38:54.769Z,43.00
2023-03-16T23:41:25.008Z,43.00
2023-03-16T23:43:54.315Z,42.33
2023-03-16T23:46:25.273Z,42.00
2023-03-16T23:48:57.123Z,40.67
2023-03-16T23:51:29.246Z,44.00
2023-03-16T23:53:58.653Z,45.00
2023-03-16T23:56:27.178Z,46.00
2023-03-16T23:58:55.192Z,46.00
